createdAt,value
2019-03-12T00:01:05.819Z,77.90
2019-03-12T00:03:34.065Z,78.10
2019-03-12T00:06:05.946Z,78.30
2019-03-12T00:08:34.029Z,78.60
2019-03-12T00:11:02.409Z,78.90
2019-03-12T00:13:30.669Z,79.10
2019-03-12T00:16:04.974Z,79.10
2019-03-12T00:18:30.605Z,79.00
2019-03-12T00:20:58.867Z,79.00
2019-03-12T00:23:27.199Z,78.80
2019-03-12T00:25:57.140Z,78.80
2019-03-12T00:28:25.446Z,78.60
2019-03-12T00:30:54.750Z,78.50
2019-03-12T00:33:23.049Z,78.10
2019-03-12T00:35:51.316Z,78.30
2019-03-12T00:38:19.538Z,78.10
2019-03-12T00:40:53.589Z,78.10
2019-03-12T00:43:24.145Z,77.90
2019-03-12T00:45:51.823Z,77.80
2019-03-12T00:48:20.106Z,77.90
2019-03-12T00:50:48.413Z,77.80
2019-03-12T00:53:16.668Z,77.70
2019-03-12T00:55:44.911Z,77.70
2019-03-12T00:58:13.150Z,77.50
2019-03-12T01:00:41.566Z,77.40
2019-03-12T01:03:11.496Z,77.30
2019-03-12T01:05:39.823Z,77.40
2019-03-12T01:08:08.073Z,77.20
2019-03-12T01:10:36.307Z,77.20
2019-03-12T01:13:07.810Z,77.20
2019-03-12T01:15:36.067Z,77.20
2019-03-12T01:18:04.320Z,77.20
2019-03-12T01:20:32.626Z,77.30
2019-03-12T01:23:02.388Z,77.30
2019-03-12T01:25:30.610Z,77.60
2019-03-12T01:27:58.883Z,77.90
2019-03-12T01:30:27.124Z,77.90
2019-03-12T01:32:55.377Z,77.50
2019-03-12T01:35:23.615Z,77.70
2019-03-12T01:37:51.868Z,77.70
2019-03-12T01:40:33.685Z,77.60
2019-03-12T01:43:01.913Z,77.80
2019-03-12T01:45:31.808Z,77.90
2019-03-12T01:48:00.084Z,77.90
2019-03-12T01:50:30.763Z,78.10
2019-03-12T01:52:59.015Z,78.00
2019-03-12T01:55:27.259Z,78.20
2019-03-12T01:57:55.524Z,78.20
2019-03-12T02:00:27.001Z,78.30
2019-03-12T02:02:55.238Z,78.00
2019-03-12T02:05:23.570Z,78.00
2019-03-12T02:07:51.823Z,78.10
2019-03-12T02:10:22.239Z,77.90
2019-03-12T02:12:52.212Z,77.50
2019-03-12T02:15:20.443Z,77.30
2019-03-12T02:17:48.686Z,76.80
2019-03-12T02:20:18.058Z,76.60
2019-03-12T02:22:46.306Z,76.70
2019-03-12T02:25:16.482Z,75.70
2019-03-12T02:27:44.760Z,75.90
2019-03-12T02:30:15.522Z,75.60
2019-03-12T02:32:44.921Z,75.60
2019-03-12T02:35:13.388Z,75.70
2019-03-12T02:37:41.638Z,75.10
2019-03-12T02:40:11.228Z,75.10
2019-03-12T02:42:39.506Z,75.00
2019-03-12T02:45:10.833Z,75.10
2019-03-12T02:47:39.096Z,74.80
2019-03-12T02:50:10.731Z,75.10
2019-03-12T02:52:38.965Z,75.30
2019-03-12T02:55:08.546Z,75.30
2019-03-12T02:57:36.767Z,75.20
2019-03-12T03:00:08.359Z,75.00
2019-03-12T03:02:36.640Z,75.10
2019-03-12T03:05:05.870Z,75.00
2019-03-12T03:07:35.739Z,75.00
2019-03-12T03:10:06.487Z,75.30
2019-03-12T03:12:34.761Z,75.40
2019-03-12T03:15:06.824Z,75.50
2019-03-12T03:17:35.111Z,75.60
2019-03-12T03:20:04.517Z,75.70
2019-03-12T03:22:32.831Z,75.90
2019-03-12T03:25:01.070Z,75.90
2019-03-12T03:27:29.859Z,76.10
2019-03-12T03:29:58.276Z,76.30
2019-03-12T03:32:26.549Z,76.50
2019-03-12T03:34:54.968Z,76.50
2019-03-12T03:37:23.285Z,76.50
2019-03-12T03:39:51.536Z,76.80
2019-03-12T03:42:19.814Z,77.00
2019-03-12T03:44:48.112Z,76.90
2019-03-12T03:47:19.654Z,76.90
2019-03-12T03:49:46.411Z,77.20
2019-03-12T03:52:14.768Z,77.40
2019-03-12T03:54:43.079Z,77.90
2019-03-12T03:57:11.340Z,77.60
2019-03-12T03:59:39.591Z,77.70
2019-03-12T04:02:07.821Z,78.10
2019-03-12T04:04:36.148Z,78.20
2019-03-12T04:07:04.428Z,78.40
2019-03-12T04:09:32.672Z,78.70
2019-03-12T04:12:02.555Z,78.80
2019-03-12T04:14:30.822Z,78.90
2019-03-12T04:16:59.081Z,78.80
2019-03-12T04:19:27.398Z,78.70
2019-03-12T04:21:55.796Z,78.70
2019-03-12T04:24:24.083Z,79.00
2019-03-12T04:26:52.340Z,79.00
2019-03-12T04:29:22.838Z,79.00
2019-03-12T04:31:50.666Z,78.60
2019-03-12T04:34:19.143Z,79.10
2019-03-12T04:36:47.449Z,79.10
2019-03-12T04:39:15.688Z,79.00
2019-03-12T04:41:43.957Z,79.00
2019-03-12T04:44:12.249Z,79.20
2019-03-12T04:46:40.520Z,79.20
2019-03-12T04:49:08.765Z,79.40
2019-03-12T04:51:37.053Z,79.60
2019-03-12T04:54:05.288Z,79.50
2019-03-12T04:56:35.242Z,79.70
2019-03-12T04:59:10.710Z,79.60
2019-03-12T05:05:10.619Z,79.60
2019-03-12T05:11:25.623Z,79.90
2019-03-12T05:13:57.161Z,79.00
2019-03-12T05:16:25.551Z,79.20
2019-03-12T05:18:57.268Z,79.10
2019-03-12T05:21:27.198Z,78.60
2019-03-12T05:23:55.442Z,78.20
2019-03-12T05:26:26.991Z,78.50
2019-03-12T05:28:57.779Z,78.70
2019-03-12T05:31:26.671Z,78.80
2019-03-12T05:33:55.030Z,79.10
2019-03-12T05:36:23.342Z,78.80
2019-03-12T05:38:51.595Z,78.70
2019-03-12T05:41:19.967Z,78.80
2019-03-12T05:43:49.884Z,78.80
2019-03-12T05:46:25.964Z,79.00
2019-03-12T05:48:54.610Z,79.20
2019-03-12T05:51:27.864Z,79.20
2019-03-12T05:53:56.104Z,79.60
2019-03-12T05:56:24.364Z,79.50
2019-03-12T05:58:52.712Z,79.50
2019-03-12T06:01:20.988Z,79.40
2019-03-12T06:03:49.441Z,79.60
2019-03-12T06:06:17.999Z,79.80
2019-03-12T06:08:55.559Z,79.80
2019-03-12T06:11:23.850Z,79.60
2019-03-12T06:13:52.962Z,80.80
2019-03-12T06:16:36.115Z,80.20
2019-03-12T06:19:04.418Z,80.30
2019-03-12T06:21:32.684Z,80.60
2019-03-12T06:24:00.970Z,80.50
2019-03-12T06:26:50.087Z,80.50
2019-03-12T06:29:20.437Z,80.10
2019-03-12T06:32:01.560Z,80.30
2019-03-12T06:34:37.777Z,79.60
2019-03-12T06:37:09.630Z,79.40
2019-03-12T06:39:42.797Z,79.00
2019-03-12T06:42:16.144Z,78.70
2019-03-12T06:44:49.086Z,78.60
2019-03-12T06:47:19.046Z,78.30
2019-03-12T06:49:49.024Z,77.80
2019-03-12T06:55:15.744Z,76.80
2019-03-12T06:57:48.974Z,76.60
2019-03-12T07:00:20.516Z,76.00
2019-03-12T07:02:50.514Z,75.80
2019-03-12T07:05:24.854Z,75.60
2019-03-12T07:07:54.786Z,75.50
2019-03-12T07:14:06.677Z,75.00
2019-03-12T07:17:13.175Z,74.50
2019-03-12T07:20:20.316Z,74.80
2019-03-12T07:25:28.449Z,74.40
2019-03-12T07:28:06.163Z,74.20
2019-03-12T07:30:49.425Z,73.80
2019-03-12T07:33:32.292Z,73.60
2019-03-12T07:36:10.657Z,73.20
2019-03-12T07:41:52.854Z,72.70
2019-03-12T07:44:29.398Z,72.30
2019-03-12T07:47:17.127Z,71.90
2019-03-12T07:52:56.859Z,71.80
2019-03-12T07:55:35.958Z,71.20
2019-03-12T08:00:54.969Z,72.20
2019-03-12T08:03:26.669Z,72.60
2019-03-12T08:06:32.834Z,72.60
2019-03-12T08:09:10.031Z,73.10
2019-03-12T08:11:52.540Z,74.00
2019-03-12T08:14:36.602Z,74.40
2019-03-12T08:17:17.714Z,74.70
2019-03-12T08:29:11.057Z,75.70
2019-03-12T08:34:31.791Z,75.80
2019-03-12T09:45:35.976Z,64.30
2019-03-12T09:53:38.897Z,64.00
2019-03-12T09:56:11.156Z,63.60
2019-03-12T09:58:41.215Z,63.30
2019-03-12T10:04:30.040Z,63.00
2019-03-12T10:07:02.041Z,63.30
2019-03-12T10:09:35.288Z,63.20
2019-03-12T10:12:15.584Z,62.90
2019-03-12T10:14:51.432Z,62.30
2019-03-12T10:17:22.132Z,61.70
2019-03-12T10:23:57.103Z,60.60
2019-03-12T10:26:07.744Z,60.20
2019-03-12T10:28:29.037Z,60.90
2019-03-12T10:31:00.734Z,60.80
2019-03-12T10:33:42.343Z,61.10
2019-03-12T11:27:33.804Z,63.20
2019-03-12T11:36:47.451Z,63.30
2019-03-12T11:51:53.929Z,62.30
2019-03-12T11:57:52.843Z,63.50
2019-03-12T12:06:51.573Z,64.00
2019-03-12T12:10:00.178Z,64.10
2019-03-12T13:15:41.806Z,60.50
2019-03-12T13:18:42.489Z,60.10
2019-03-12T13:30:34.472Z,59.30
2019-03-12T13:39:26.686Z,59.30
2019-03-12T13:53:58.857Z,60.90
2019-03-12T13:57:24.094Z,61.20
2019-03-12T14:09:00.733Z,64.30
2019-03-12T14:52:10.708Z,62.60
2019-03-12T14:57:26.476Z,62.50
2019-03-12T15:00:37.730Z,62.70
2019-03-12T15:06:19.438Z,62.90
2019-03-12T15:09:05.012Z,62.60
2019-03-12T15:16:15.791Z,61.80
2019-03-12T15:25:06.919Z,65.10
2019-03-12T15:27:35.238Z,65.80
2019-03-12T15:30:04.366Z,66.00
2019-03-12T15:32:34.251Z,66.30
2019-03-12T15:35:05.376Z,66.50
2019-03-12T15:37:35.331Z,66.10
2019-03-12T15:40:06.818Z,67.10
2019-03-12T15:42:35.081Z,67.00
2019-03-12T15:45:04.604Z,67.50
2019-03-12T15:47:44.862Z,68.10
2019-03-12T15:53:06.120Z,68.70
2019-03-12T15:55:35.334Z,69.00
2019-03-12T16:01:10.621Z,69.50
2019-03-12T16:03:49.130Z,69.60
2019-03-12T16:18:42.801Z,68.20
2019-03-12T16:21:12.818Z,68.20
2019-03-12T16:23:52.629Z,67.70
2019-03-12T16:53:38.516Z,68.90
2019-03-12T16:59:36.898Z,71.00
2019-03-12T17:05:44.246Z,72.70
2019-03-12T17:11:43.596Z,73.80
2019-03-12T17:14:12.281Z,74.20
2019-03-12T17:17:03.599Z,74.90
2019-03-12T17:19:33.706Z,75.70
2019-03-12T17:22:10.401Z,75.80
2019-03-12T17:24:42.695Z,76.00
2019-03-12T17:27:09.482Z,76.50
2019-03-12T17:29:54.312Z,76.80
2019-03-12T17:32:20.467Z,76.60
2019-03-12T17:34:51.152Z,77.10
2019-03-12T17:37:19.639Z,77.40
2019-03-12T17:39:58.247Z,77.70
2019-03-12T17:42:27.189Z,77.90
2019-03-12T17:45:01.258Z,78.30
2019-03-12T17:50:59.875Z,78.90
2019-03-12T17:53:27.056Z,79.40
2019-03-12T17:55:59.999Z,79.10
2019-03-12T18:01:20.437Z,79.00
2019-03-12T18:03:48.908Z,79.30
2019-03-12T18:09:26.278Z,79.20
2019-03-12T18:11:58.037Z,79.10
2019-03-12T18:14:26.367Z,78.90
2019-03-12T18:16:55.179Z,79.20
2019-03-12T18:19:23.704Z,79.50
2019-03-12T18:22:02.674Z,79.80
2019-03-12T18:24:31.329Z,79.70
2019-03-12T18:26:59.775Z,79.50
2019-03-12T18:29:28.574Z,79.40
2019-03-12T18:31:57.055Z,79.50
2019-03-12T18:34:31.486Z,80.10
2019-03-12T18:36:57.479Z,80.00
2019-03-12T18:39:38.516Z,80.50
2019-03-12T18:42:10.527Z,80.70
2019-03-12T18:48:08.088Z,80.30
2019-03-12T18:50:36.533Z,80.20
2019-03-12T18:53:23.946Z,78.50
2019-03-12T18:55:56.038Z,75.80
2019-03-12T19:07:27.004Z,80.10
2019-03-12T19:10:01.100Z,80.20
2019-03-12T19:12:35.392Z,80.80
2019-03-12T19:15:05.798Z,81.10
2019-03-12T19:17:34.636Z,81.10
2019-03-12T19:20:04.083Z,81.40
2019-03-12T19:22:39.148Z,81.40
2019-03-12T19:25:38.437Z,81.20
2019-03-12T19:34:06.040Z,81.30
2019-03-12T19:36:39.172Z,81.10
2019-03-12T19:39:08.524Z,81.10
2019-03-12T19:42:22.164Z,81.60
2019-03-12T19:44:50.805Z,81.50
2019-03-12T19:47:27.136Z,82.50
2019-03-12T19:50:57.181Z,82.90
2019-03-12T19:53:29.530Z,82.60
2019-03-12T19:59:15.310Z,83.40
2019-03-12T20:01:45.342Z,83.70
2019-03-12T20:04:19.960Z,84.80
2019-03-12T20:06:59.114Z,84.20
2019-03-12T20:13:19.079Z,83.70
2019-03-12T20:15:52.667Z,83.40
2019-03-12T20:25:05.692Z,84.00
2019-03-12T21:59:49.684Z,80.40
2019-03-12T22:23:21.600Z,80.50
2019-03-12T23:28:01.395Z,79.10
2019-03-12T23:39:58.041Z,79.20
